Date,TemperatureHighF,TemperatureAvgF,TemperatureLowF,DewpointHighF,DewpointAvgF,DewpointLowF,HumidityHigh,HumidityAvg,HumidityLow,PressureMaxIn,PressureMinIn,WindSpeedMaxMPH,WindSpeedAvgMPH,GustSpeedMaxMPH,PrecipitationSumIn
2013-1-9,41,37,30,32,30,22,86,76,68,29.95,29.73,22,10,0,0.00
2013-1-10,38,32,19,32,27,17,93,85,77,29.71,29.52,21,7,0,0.00
2013-1-11,18,10,2,16,7,-1,93,89,85,30.06,29.70,30,22,0,0.00
2013-1-12,5,0,-5,-1,-4,-9,85,79,70,30.21,30.04,24,9,0,0.00
2013-1-13,6,1,-5,2,-3,-9,86,85,83,30.23,30.13,10,5,0,0.00
2013-1-14,15,6,-8,11,2,-11,88,84,79,30.20,29.96,11,4,0,0.00
2013-1-15,38,29,14,33,26,10,96,87,81,29.96,29.73,25,14,0,0.00
2013-1-16,38,34,28,33,30,26,93,85,80,30.24,29.80,22,11,0,0.00
2013-1-17,39,32,26,32,28,23,93,86,72,30.32,29.83,16,9,0,0.00
2013-1-18,39,36,31,31,29,26,83,77,72,29.85,29.77,16,10,0,0.00
2013-1-19,36,16,4,31,11,-1,88,81,74,30.38,29.85,29,11,0,0.00
2013-1-20,9,-2,-12,6,-7,-18,89,77,67,30.61,30.27,21,11,0,0.00
2013-1-21,4,-1,-7,1,-7,-14,86,74,65,30.47,30.19,14,6,0,0.00
2013-1-22,17,10,4,13,6,1,92,86,80,30.22,30.10,15,6,0,0.00
2013-1-23,8,5,3,5,0,-3,88,79,72,30.43,30.20,19,9,0,0.00
2013-1-24,32,18,6,25,14,2,91,84,75,30.20,29.83,24,14,0,0.00
2013-1-25,30,15,4,26,12,2,92,89,81,30.14,29.93,11,5,0,0.00
2013-1-26,35,26,18,30,22,16,93,86,78,29.93,29.80,6,2,0,0.00
2013-1-27,33,25,16,31,23,14,96,93,90,29.82,29.74,14,5,0,0.00
2013-1-28,34,28,14,28,24,11,92,84,73,29.83,29.73,9,6,0,0.00
2013-1-29,16,8,-6,14,5,-10,92,88,81,30.22,29.70,25,12,0,0.00
2013-1-30,-4,-7,-10,-10,-12,-14,81,78,70,30.16,29.96,19,7,0,0.00
2013-1-31,7,-6,-19,3,-12,-24,82,75,70,30.37,30.03,10,7,0,0.00
2013-2-1,28,19,7,26,16,3,94,89,82,30.09,29.91,13,6,0,0.00
2013-2-2,35,26,15,32,23,13,94,89,85,30.20,30.01,29,13,0,0.00
2013-2-14,27,24,14,24,20,10,92,86,78,30.34,30.03,30,12,0,0.00
2013-2-15,36,22,4,29,17,2,91,82,72,30.40,29.96,16,5,0,0.00
2013-2-16,41,35,27,34,30,24,90,81,73,29.98,29.69,13,6,0,0.00
2013-2-17,39,33,18,33,29,16,100,86,78,29.88,29.53,22,13,0,0.00
2013-2-18,17,13,8,15,10,4,91,86,80,30.22,29.97,19,14,0,0.00
2013-3-3,33,32,29,32,31,28,97,97,97,29.65,29.61,13,11,0,0.00
2013-3-4,29,19,10,28,17,8,100,94,91,30.39,29.65,28,19,0,0.00
2013-3-5,19,11,5,18,9,2,94,91,89,30.46,30.31,11,4,0,0.00
2013-3-6,25,16,5,23,14,2,93,91,89,30.31,29.93,22,10,0,0.00
2013-3-7,30,23,16,27,20,14,94,91,87,30.17,29.92,19,8,0,0.00
2013-3-8,25,18,8,24,16,6,95,91,87,30.21,30.02,10,6,0,0.00
2013-3-9,29,24,9,28,21,6,96,90,82,30.30,29.93,21,10,0,0.00
2013-3-10,32,18,2,26,14,0,92,87,76,30.31,29.93,6,3,0,0.00
2013-3-11,36,27,17,29,23,14,89,83,74,30.20,29.84,31,18,0,0.00
2013-3-12,28,18,8,19,14,5,88,82,66,30.37,30.19,22,8,0,0.00
2013-3-13,50,36,24,40,30,20,88,80,67,30.18,29.96,14,8,0,0.00
2013-3-14,48,36,28,40,32,26,94,86,69,30.15,30.05,16,8,0,0.00
2013-3-15,28,23,11,26,21,8,95,92,89,30.20,29.92,20,10,0,0.00
2013-3-16,15,12,8,12,8,5,90,86,81,30.23,30.00,16,10,0,0.00
2013-3-17,27,20,6,24,18,3,94,90,86,29.94,29.48,30,18,0,0.00
2013-3-18,20,8,0,15,4,-4,87,80,65,30.03,29.86,26,10,0,0.00
2013-3-19,19,10,3,15,5,0,90,82,70,30.41,29.93,13,7,0,0.00
2013-3-20,36,20,0,24,13,-3,89,75,54,30.40,29.89,22,11,0,0.00
2013-3-21,26,22,19,22,16,10,94,78,60,29.92,29.78,19,15,0,0.00
2013-3-22,23,19,10,21,17,8,94,92,90,30.14,29.90,17,8,0,0.00
2013-3-23,17,11,6,14,8,3,91,88,84,30.31,30.11,15,10,0,0.00
2013-3-24,19,12,3,16,10,1,91,89,87,30.41,30.29,18,10,0,0.00
2013-3-25,21,6,-13,17,3,-17,93,86,80,30.42,30.22,11,4,0,0.00
2013-3-26,39,22,11,29,18,8,93,83,68,30.21,30.06,15,7,0,0.00
2013-3-27,32,20,8,29,18,5,95,90,83,30.17,30.10,6,2,0,0.00
2013-3-28,38,25,13,33,23,11,96,90,80,30.20,30.15,6,2,0,0.00
2013-3-29,51,36,27,45,33,26,96,91,80,30.16,30.04,9,3,0,0.00
2013-3-30,34,31,28,33,30,27,96,95,94,30.11,30.09,6,5,0,0.00
2013-4-11,40,33,21,31,26,18,94,77,48,29.93,29.88,15,7,0,0.00
2013-4-12,37,32,25,33,30,24,95,90,80,30.02,29.92,16,6,0,0.00
2013-4-13,47,34,18,33,26,16,96,78,44,29.94,29.58,25,14,0,0.00
2013-4-14,31,26,23,28,24,22,95,93,87,29.95,29.67,25,20,0,0.00
2013-4-15,30,27,24,28,24,21,95,90,84,30.13,29.93,18,11,0,0.00
2013-4-16,31,26,21,27,23,19,94,88,79,30.39,30.13,11,6,0,0.00
2013-4-17,30,25,18,26,22,16,94,90,79,30.38,30.29,11,6,0,0.00
2013-4-18,36,24,10,28,19,8,92,80,62,30.30,30.03,9,5,0,0.00
2013-4-19,38,32,27,30,25,21,93,76,53,30.08,29.99,14,9,0,0.00
2013-4-20,42,33,27,37,29,22,93,83,71,30.00,29.84,24,14,0,0.00
2013-4-21,39,34,24,37,28,20,95,80,64,30.34,29.88,25,14,0,0.00
2013-4-22,35,26,17,20,17,13,90,71,46,30.47,30.32,11,6,0,0.00
2013-4-23,47,35,21,32,23,17,94,65,35,30.38,30.04,15,8,0,0.00
2013-4-24,41,34,28,31,24,19,96,70,44,30.14,30.02,25,13,0,0.00
2013-4-25,63,46,28,34,28,22,83,54,26,30.02,29.78,21,10,0,0.00
2013-4-26,74,58,38,36,32,28,76,43,19,30.06,29.93,17,8,0,0.00
2013-4-27,75,61,47,38,35,30,59,40,20,29.96,29.75,18,9,0,0.00
2013-4-28,63,54,40,38,30,24,65,42,25,29.96,29.77,17,10,0,0.00
2013-4-29,66,52,40,43,34,28,76,53,28,29.82,29.43,18,12,0,0.00
2013-4-30,44,34,21,33,27,17,92,74,58,30.27,29.55,27,17,0,0.00
2013-5-1,47,34,21,24,18,11,88,57,23,30.65,30.28,18,10,0,0.00
2013-5-2,58,41,20,25,20,14,83,49,18,30.67,30.41,13,4,0,0.00
2013-5-3,65,50,32,29,26,22,70,43,20,30.41,30.18,12,8,0,0.00
2013-5-4,62,49,30,29,25,19,72,42,23,30.38,30.28,13,6,0,0.00
2013-5-5,66,51,34,33,29,23,76,47,26,30.33,30.15,9,3,0,0.00
2013-5-6,72,56,35,38,32,29,80,45,23,30.16,30.00,12,4,0,0.00
2013-5-7,77,60,41,35,31,27,65,38,17,30.02,29.87,11,5,0,0.00
2013-5-8,62,52,41,44,36,26,77,56,37,30.27,29.96,19,12,0,0.00
2013-5-9,65,51,38,33,27,21,66,42,21,30.33,30.18,13,8,0,0.00
2013-5-10,60,51,42,44,28,-100,71,45,24,30.42,30.10,26,13,0,0.00
2013-5-11,58,45,26,27,23,19,82,45,23,30.50,30.24,7,5,0,0.00
2013-5-12,81,60,36,43,32,19,57,35,21,30.24,29.79,15,10,0,0.00
2013-5-13,89,74,59,56,45,41,85,40,19,29.88,29.58,19,10,0,0.00
2013-5-14,71,61,51,56,45,38,94,59,32,29.94,29.58,28,15,0,0.00
2013-5-15,73,60,47,42,36,29,68,46,20,30.02,29.93,11,6,0,0.00
2013-5-16,71,53,43,51,28,-100,91,63,44,29.93,29.87,15,7,0,0.00
2013-5-17,67,57,52,54,47,-100,89,78,62,29.95,29.85,9,5,0,0.00
2013-5-18,67,60,53,57,54,51,94,83,70,29.93,29.84,16,7,0,0.00
2013-5-19,59,55,51,55,51,48,93,88,66,29.96,29.90,28,18,0,0.00
2013-5-20,58,52,48,52,49,44,95,89,71,30.03,29.91,28,19,0,0.00
2013-5-21,59,52,45,47,43,39,82,70,54,30.09,30.02,22,10,0,0.00
2013-5-22,68,56,40,47,40,32,96,60,27,30.22,30.09,21,10,0,0.00
2013-5-23,69,57,43,50,45,39,93,67,41,30.25,30.04,24,14,0,0.00
2013-5-24,69,58,49,51,46,42,81,64,41,30.05,29.90,22,12,0,0.00
2013-5-25,72,58,44,60,50,40,91,76,51,30.06,29.89,24,11,0,0.00
2013-5-26,75,64,52,60,56,51,96,78,55,30.03,29.88,10,5,0,0.00
2013-5-27,64,60,54,61,56,52,95,89,75,29.89,29.73,23,6,0,0.00
2013-5-28,67,59,51,57,54,49,96,84,63,29.78,29.70,13,6,0,0.00
2013-5-29,70,60,46,58,53,45,97,80,59,29.77,29.66,20,10,0,0.00
2013-5-30,59,54,51,55,52,50,97,94,86,29.70,29.53,28,18,0,0.00
2013-5-31,54,51,50,52,49,44,97,91,74,30.09,29.53,24,14,0,0.00
2013-6-1,63,52,40,46,41,37,93,69,45,30.24,30.09,12,6,0,0.00
2013-6-2,68,55,40,48,45,38,92,70,47,30.17,29.95,15,8,0,0.00
2013-6-3,54,48,46,47,45,42,96,90,69,29.99,29.80,28,20,0,0.00
2013-6-4,54,49,44,47,45,43,96,88,72,30.26,29.95,23,14,0,0.00
2013-6-5,67,56,43,48,44,41,92,66,40,30.26,30.15,8,4,0,0.00
2013-6-6,72,60,44,53,48,42,93,69,46,30.15,30.03,12,6,0,0.00
2013-6-7,72,60,43,59,50,41,95,74,42,30.04,29.73,11,4,0,0.00
2013-6-8,64,58,50,57,54,48,97,87,66,29.93,29.68,18,8,0,0.00
2013-6-9,77,64,49,58,52,46,91,69,47,29.96,29.75,17,6,0,0.00
2013-6-10,73,62,49,55,52,48,96,71,43,29.98,29.81,13,6,0,0.00
2013-6-11,76,62,52,57,52,49,90,73,45,30.08,29.93,12,5,0,0.00
2013-6-12,72,63,56,58,56,52,94,78,60,30.18,29.99,15,6,0,0.00
2013-6-13,75,66,57,60,57,54,91,74,57,30.14,29.90,21,11,0,0.00
2013-6-14,70,62,50,60,54,46,95,77,49,29.98,29.80,17,8,0,0.00
2013-6-15,72,61,48,50,48,44,92,64,41,29.99,29.95,17,10,0,0.00
2013-6-16,72,61,51,54,50,47,86,68,47,30.14,29.98,21,11,0,0.00
2013-6-17,71,59,48,55,52,46,97,79,52,30.21,30.14,12,4,0,0.00
2013-6-18,79,64,49,63,56,47,96,76,48,30.16,29.93,11,5,0,0.00
2013-6-19,84,71,56,67,60,55,95,72,47,29.93,29.73,19,12,0,0.00
2013-6-20,72,64,59,65,60,57,94,87,71,29.94,29.66,21,11,0,0.00
2013-6-22,69,65,57,60,58,55,93,78,61,30.05,29.91,9,5,0,0.00
2013-6-23,74,63,55,58,55,52,95,76,47,29.93,29.79,15,8,0,0.00
2013-6-24,83,69,55,69,60,49,92,74,54,29.82,29.68,14,6,0,0.00
2013-6-25,76,68,59,65,62,56,96,80,59,29.83,29.67,24,7,0,0.00
2013-6-26,77,68,56,60,56,52,94,69,42,30.03,29.82,15,7,0,0.00
2013-6-27,78,68,56,59,54,51,85,63,39,30.19,30.03,17,8,0,0.00
2013-6-28,80,69,54,60,56,51,90,66,43,30.25,30.19,14,8,0,0.00
2013-6-29,76,66,51,60,55,49,93,71,52,30.26,30.20,13,7,0,0.00
2013-6-30,78,66,49,62,58,47,95,75,53,30.28,30.21,9,5,0,0.00
2013-7-1,83,76,64,66,62,59,85,63,48,30.29,30.21,9,6,0,0.00
2013-7-2,84,71,58,65,59,53,84,67,40,30.25,30.06,7,4,0,0.00
2013-7-3,89,76,59,68,60,53,85,61,40,30.06,29.78,14,7,0,0.00
2013-7-4,80,73,64,69,63,58,93,72,47,29.95,29.84,14,8,0,0.00
2013-7-5,85,69,59,67,61,56,95,78,51,29.89,29.77,19,5,0,0.00
2013-7-6,77,69,62,63,60,54,96,76,47,29.98,29.80,16,8,0,0.00
2013-7-7,79,68,54,64,58,52,94,75,43,30.06,29.98,8,3,0,0.00
2013-7-8,81,68,58,69,63,56,95,85,63,30.04,29.94,22,5,0,0.00
2013-7-9,71,64,54,61,58,52,97,83,61,30.23,29.98,13,6,0,0.00
2013-7-10,81,68,53,65,57,-100,94,71,47,30.20,29.98,6,2,0,0.00
2013-7-11,96,76,60,73,65,57,95,72,36,29.98,29.69,19,7,0,0.00
2013-7-12,86,76,60,69,59,49,86,60,29,29.99,29.75,10,4,0,0.00
2013-7-13,90,70,55,71,61,52,89,74,49,30.24,29.93,30,10,0,0.00
2013-7-14,69,60,51,58,54,48,95,82,61,30.36,30.24,14,6,0,0.00
2013-7-15,85,70,54,72,64,53,96,81,63,30.25,29.94,16,9,0,0.00
2013-7-16,71,64,57,67,58,53,93,79,68,30.31,29.96,18,10,0,0.00
2013-7-17,71,65,55,65,60,54,96,85,73,30.32,30.09,19,10,0,0.00
2013-7-18,87,69,54,66,58,50,97,72,28,30.10,29.98,20,8,0,0.00
2013-7-19,85,69,53,61,55,51,94,66,32,30.11,29.96,11,6,0,0.00
2013-7-20,78,65,56,62,57,-100,94,78,55,30.09,29.96,10,4,0,0.00
2013-7-21,86,71,58,69,61,55,95,73,45,29.96,29.73,22,10,0,0.00
2013-7-22,73,62,50,58,54,49,96,78,57,30.04,29.93,11,6,0,0.00
2013-7-23,74,64,53,62,57,51,95,81,59,30.18,30.04,13,5,0,0.00
2013-7-24,82,67,52,62,57,51,96,74,40,30.18,30.08,7,3,0,0.00
2013-7-25,67,60,53,57,52,44,96,74,48,30.32,30.10,15,8,0,0.00
2013-7-26,68,57,42,52,47,41,97,72,46,30.40,30.29,12,5,0,0.00
2013-7-27,75,60,40,48,45,38,95,62,37,30.32,30.03,15,8,0,0.00
2013-7-28,77,65,46,63,52,41,87,65,46,30.05,29.91,19,7,0,0.00
2013-7-29,73,62,52,60,55,49,92,79,56,30.13,29.92,13,6,0,0.00
2013-7-30,74,62,48,61,55,47,96,80,52,30.25,30.13,13,5,0,0.00
2013-7-31,78,62,44,54,47,42,95,63,35,30.29,30.16,16,6,0,0.00
2013-8-1,78,64,47,55,50,43,87,64,41,30.19,30.03,8,3,0,0.00
2013-8-2,73,62,54,59,54,51,94,77,48,30.19,30.06,12,4,0,0.00
2013-8-3,79,65,53,61,57,52,96,78,51,30.24,30.13,17,9,0,0.00
2013-8-4,77,63,56,62,58,55,98,86,56,30.14,30.03,15,3,0,0.00
2013-8-5,84,64,49,62,55,48,97,77,36,30.07,29.81,11,3,0,0.00
2013-8-6,74,61,52,60,56,51,97,86,54,30.06,29.88,20,7,0,0.00
2013-8-7,69,60,51,56,51,44,97,75,43,30.16,30.06,14,7,0,0.00
2013-8-8,73,58,42,55,48,41,97,73,43,30.23,30.14,9,4,0,0.00
2013-8-9,72,62,52,54,50,47,89,68,45,30.30,30.23,8,4,0,0.00
2013-8-10,77,61,51,61,54,50,97,82,55,30.27,30.10,18,5,0,0.00
2013-8-11,76,65,52,62,57,51,98,78,57,30.24,30.14,10,6,0,0.00
2013-8-12,78,65,53,61,56,52,96,73,48,30.23,30.17,12,5,0,0.00
2013-8-13,79,65,55,65,58,51,96,79,60,30.25,30.12,15,7,0,0.00
2013-8-14,78,65,56,64,60,55,98,85,59,30.19,30.08,12,3,0,0.00
2013-8-15,84,63,52,65,48,-100,97,75,46,30.11,30.05,6,2,0,0.00
2013-8-16,91,74,59,65,58,-100,93,63,34,30.08,29.96,13,7,0,0.00
2013-8-17,90,74,62,67,62,-100,91,69,40,29.98,29.92,15,7,0,0.00
2013-8-18,88,70,58,64,58,52,95,69,31,30.10,29.96,22,5,0,0.00
2013-8-19,91,75,59,61,48,-100,79,50,21,29.98,29.86,11,6,0,0.00
2013-8-20,88,73,58,56,51,-100,83,50,26,29.98,29.83,16,7,0,0.00
2013-8-21,77,65,55,56,51,47,93,64,41,30.24,29.98,23,9,0,0.00
2013-8-22,84,69,53,61,53,46,83,59,41,30.28,30.03,16,8,0,0.00
2013-8-23,93,75,60,68,62,54,90,67,41,30.03,29.75,11,6,0,0.00
2013-8-24,84,73,66,64,60,-100,89,67,42,29.94,29.77,13,4,0,0.00
2013-8-25,88,73,55,65,59,52,90,64,35,30.05,29.94,11,4,0,0.00
2013-8-26,90,76,62,68,63,58,86,66,45,30.01,29.91,6,2,0,0.00
2013-8-27,82,70,64,63,60,58,88,73,47,30.09,29.92,11,4,0,0.00
2013-8-28,90,82,74,70,68,65,85,63,49,30.06,29.92,13,8,0,0.00
2013-8-29,87,73,62,68,64,61,97,76,44,30.08,29.92,11,4,0,0.00
2013-8-30,90,76,64,67,63,59,93,68,36,30.07,29.89,8,4,0,0.00
2013-8-31,77,67,58,60,52,-100,87,62,38,30.11,29.89,21,11,0,0.00
2013-9-1,76,64,56,60,57,54,98,80,52,30.20,30.09,8,4,0,0.00
2013-9-2,87,68,51,62,56,49,96,70,36,30.09,29.96,10,4,0,0.00
2013-9-3,93,76,62,65,60,57,87,62,31,30.10,29.97,10,5,0,0.00
2013-9-4,80,71,61,66,62,58,96,74,54,30.19,30.10,14,8,0,0.00
2013-9-5,94,76,64,69,64,58,85,67,38,30.16,29.99,11,5,0,0.00
2013-9-6,91,78,67,68,65,63,93,68,39,30.07,29.98,11,4,0,0.00
2013-9-7,73,66,61,67,60,-100,93,85,62,30.16,30.05,23,12,0,0.00
2013-9-8,71,64,58,64,60,56,96,88,76,30.11,29.87,9,4,0,0.00
2013-9-9,74,64,54,62,58,52,98,84,50,29.97,29.84,15,7,0,0.00
2013-9-10,80,66,54,60,53,49,96,69,34,30.15,29.97,15,7,0,0.00
2013-9-11,77,63,51,53,47,43,90,60,32,30.37,30.15,11,5,0,0.00
2013-9-12,77,60,39,51,44,37,95,62,31,30.43,30.21,8,4,0,0.00
2013-9-13,86,70,53,58,53,48,84,58,32,30.21,29.84,17,8,0,0.00
2013-9-14,75,64,49,62,55,-100,93,74,52,30.18,29.83,23,8,0,0.00
2013-9-15,69,54,41,50,44,40,97,72,39,30.33,30.18,11,5,0,0.00
2013-9-16,79,64,46,57,52,41,93,69,42,30.25,29.83,20,12,0,0.00
2013-9-17,85,69,58,60,56,54,89,66,39,29.83,29.66,24,6,0,0.00
2013-9-18,61,58,54,59,56,50,96,93,85,29.85,29.64,17,5,0,0.00
2013-9-19,54,47,37,50,43,35,95,87,74,30.15,29.83,18,9,0,0.00
2013-9-20,69,51,36,47,38,34,95,68,32,30.15,29.96,8,3,0,0.00
2013-9-21,79,56,38,51,42,-100,91,65,33,29.96,29.65,14,7,0,0.00
2013-9-22,69,57,45,55,50,43,94,78,55,29.65,29.53,12,5,0,0.00
2013-9-23,69,57,47,52,46,37,91,67,38,29.89,29.54,13,6,0,0.00
2013-9-24,73,57,42,44,38,35,77,54,27,30.00,29.72,10,5,0,0.00
2013-9-25,64,57,51,50,47,43,95,71,53,29.72,29.61,19,9,0,0.00
2013-9-26,52,49,42,50,46,39,97,88,75,30.01,29.66,18,10,0,0.00
2013-9-27,53,46,38,42,38,34,92,75,52,30.01,29.87,8,5,0,0.00
2013-9-28,63,50,39,41,35,-100,85,63,34,29.87,29.78,17,7,0,0.00
2013-9-29,77,62,47,43,39,34,68,44,26,29.78,29.54,22,13,0,0.00
2013-9-30,72,54,41,47,41,37,86,63,35,29.70,29.49,21,9,0,0.00
2013-10-1,64,49,40,31,30,29,65,49,28,29.95,29.91,8,3,0,0.00
2013-10-2,61,51,36,34,30,26,78,48,27,30.09,29.96,12,7,0,0.00
2013-10-3,50,44,39,38,36,31,83,72,63,30.33,30.10,15,10,0,0.00
2013-10-4,40,37,26,37,32,23,93,81,62,30.45,30.33,16,11,0,0.00
2013-10-5,53,36,23,30,26,20,91,70,39,30.35,30.09,9,4,0,0.00
2013-10-6,70,51,32,42,34,26,83,58,32,30.12,29.99,12,5,0,0.00
2013-10-7,78,56,33,44,36,30,92,55,19,30.01,29.64,17,6,0,0.00
2013-10-8,65,55,46,40,33,29,61,45,27,29.96,29.66,16,7,0,0.00
2013-10-9,61,48,38,44,36,31,90,63,42,30.15,29.96,9,4,0,0.00
2013-10-10,64,51,37,46,43,35,95,75,47,30.03,29.72,12,4,0,0.00
2013-10-11,49,46,44,45,39,30,88,77,55,29.90,29.68,21,14,0,0.00
2013-10-12,53,40,28,32,27,-100,86,62,34,30.27,29.90,15,8,0,0.00
2013-10-13,54,39,22,34,28,19,92,66,38,30.36,30.26,13,6,0,0.00
2013-10-14,43,40,35,38,35,31,90,82,69,30.37,30.24,21,10,0,0.00
2013-10-15,53,38,26,33,28,23,88,69,36,30.37,30.08,9,5,0,0.00
2013-10-16,54,41,32,38,33,27,94,75,49,30.10,29.95,19,8,0,0.00
2013-10-17,47,38,31,35,31,26,93,76,45,30.18,30.08,11,7,0,0.00
2013-10-18,48,40,33,39,34,31,95,81,63,30.10,29.89,13,8,0,0.00
2013-10-19,58,47,39,40,35,-100,84,68,43,29.89,29.70,20,8,0,0.00
2013-10-20,47,39,34,40,31,24,92,75,49,30.07,29.75,22,13,0,0.00
2013-10-21,51,41,35,48,39,32,96,91,82,30.06,29.88,15,5,0,0.00
2013-10-22,47,40,34,40,37,32,100,87,68,30.16,30.02,8,4,0,0.00
2013-10-23,43,36,23,41,33,21,94,88,71,30.35,30.06,15,6,0,0.00
2013-10-24,44,37,31,32,30,27,94,78,62,30.38,30.17,9,4,0,0.00
2013-10-25,61,50,36,41,32,22,87,52,31,30.27,30.00,21,13,0,0.00
2013-10-26,61,39,19,33,25,-100,90,62,31,30.33,29.93,9,5,0,0.00
2013-10-27,43,36,26,34,29,22,91,76,66,30.41,29.89,23,14,0,0.00
2013-10-28,28,25,23,23,19,-100,92,79,73,30.54,30.40,18,12,0,0.00
2013-10-29,33,29,24,29,26,22,93,88,83,30.41,30.02,10,6,0,0.00
2013-10-30,48,35,28,35,30,26,94,84,59,30.03,29.69,13,7,0,0.00
2013-10-31,51,39,29,35,32,27,92,77,52,29.73,29.60,11,8,0,0.00
2013-11-1,53,42,30,36,32,24,87,69,40,30.09,29.73,24,14,0,0.00
2013-11-2,53,37,22,33,26,-100,90,68,42,30.10,29.63,14,6,0,0.00
2013-11-3,49,39,28,39,29,24,87,69,43,29.76,29.54,20,10,0,0.00
2013-11-4,33,28,17,25,17,11,82,66,48,30.14,29.76,21,13,0,0.00
2013-11-5,41,25,13,23,17,10,88,73,46,30.18,30.07,12,5,0,0.00
2013-11-6,36,26,18,22,18,12,85,70,54,30.28,30.04,13,6,0,0.00
2013-11-7,47,34,24,27,22,16,87,64,35,30.29,29.77,9,5,0,0.00
2013-11-8,49,40,34,40,34,26,93,81,59,29.96,29.60,21,12,0,0.00
2013-11-9,36,30,22,31,23,-100,89,77,64,30.29,29.96,21,9,0,0.00
2013-11-10,35,25,16,27,18,7,92,76,55,30.49,30.13,17,9,0,0.00
2013-11-11,24,15,2,14,9,-1,90,78,62,30.65,30.49,9,3,0,0.00
2013-11-12,43,22,13,35,18,10,92,86,74,30.59,30.07,6,3,0,0.00
2013-11-13,56,46,40,39,36,33,78,68,51,30.07,29.94,12,8,0,0.00
2013-11-14,48,37,27,34,30,24,92,77,56,29.97,29.72,15,6,0,0.00
2013-11-15,50,37,27,31,26,22,89,67,37,29.72,29.37,17,6,0,0.00
2013-11-16,39,36,33,35,31,-100,95,84,73,29.44,29.31,9,4,0,0.00
2013-11-17,34,27,15,33,25,13,96,91,77,30.00,29.44,10,5,0,0.00
2013-11-18,51,30,11,31,22,9,93,74,42,30.01,29.84,13,3,0,0.00
2013-11-19,58,35,17,33,26,12,86,70,33,29.82,29.52,14,5,0,0.00
2013-11-20,17,11,-4,12,6,-8,88,83,77,30.52,29.82,16,11,0,0.00
2013-11-21,15,3,-16,6,-3,-20,84,76,67,30.59,30.40,17,7,0,0.00
2013-11-22,18,7,-12,11,2,-16,87,79,68,30.79,30.40,12,5,0,0.00
2013-11-23,26,11,-7,19,6,-100,87,80,74,30.78,30.17,11,5,0,0.00
2013-11-24,37,32,27,28,23,18,80,69,61,30.11,29.94,12,7,0,0.00
2013-11-25,31,25,19,23,19,15,85,79,68,30.44,30.11,16,9,0,0.00
2013-11-26,23,14,-1,16,10,-4,90,83,71,30.53,30.12,10,5,0,0.00
2013-11-27,33,26,23,26,21,15,89,81,71,30.29,29.93,19,8,0,0.00
2013-11-28,26,21,15,21,18,13,93,87,81,30.33,30.06,12,6,0,0.00
2013-11-29,40,26,14,31,22,12,93,85,69,30.09,29.97,10,3,0,0.00
2013-11-30,41,32,27,34,28,-100,95,87,73,30.19,30.08,5,2,0,0.00
2013-12-1,41,34,29,37,32,28,95,91,76,30.08,29.61,7,3,0,0.00
2013-12-2,37,27,17,36,26,15,97,94,90,29.87,29.54,19,10,0,0.00
2013-12-3,18,10,7,16,7,3,91,87,85,30.15,29.87,19,15,0,0.00
2013-12-4,6,2,-7,3,-1,-11,87,84,78,30.22,30.12,16,12,0,0.00
2013-12-5,-3,-10,-17,-8,-14,-21,82,79,75,30.43,30.21,12,7,0,0.00
2013-12-6,-9,-14,-19,-15,-19,-24,80,78,73,30.57,30.43,10,6,0,0.00
2013-12-7,-9,-18,-22,-15,-24,-100,80,77,74,30.57,30.20,8,5,0,0.00
2013-12-8,0,-11,-24,-5,-16,-29,83,79,74,30.20,29.97,13,6,0,0.00
2013-12-9,16,0,-14,12,-4,-18,92,82,76,30.12,29.65,30,11,0,0.00
2013-12-10,18,4,-17,16,0,-21,91,83,72,30.42,29.86,19,8,0,0.00
2013-12-11,22,2,-18,16,-3,-22,84,80,72,30.40,30.09,11,4,0,0.00
2013-12-12,34,23,9,27,19,6,90,83,72,30.13,29.97,12,5,0,0.00
2013-12-13,11,5,2,9,2,-1,91,87,83,30.22,29.98,16,9,0,0.00
2013-12-14,14,10,5,10,5,-100,88,83,77,30.22,29.95,9,5,0,0.00
2013-12-15,40,25,13,32,21,10,89,83,71,29.97,29.78,19,7,0,0.00
2013-12-16,35,32,28,31,28,22,95,83,70,30.18,29.90,18,12,0,0.00
2013-12-17,35,24,17,29,19,13,87,81,77,30.22,29.69,12,6,0,0.00
2013-12-18,37,22,0,29,17,-4,86,79,69,30.12,29.61,22,12,0,0.00
2013-12-19,2,-2,-9,-3,-7,-13,84,81,76,30.28,30.07,13,7,0,0.00
2013-12-20,12,-2,-11,5,-7,-15,85,81,73,30.05,29.72,8,3,0,0.00
2013-12-21,2,-1,-6,-2,-5,-100,86,84,83,30.09,29.76,14,8,0,0.00
2013-12-22,-1,-12,-21,-6,-16,-25,84,82,79,30.49,30.10,11,4,0,0.00
2013-12-23,20,-8,-29,16,-12,-34,85,81,75,30.49,29.82,14,6,0,0.00
2013-12-24,33,28,21,30,25,18,92,86,77,30.14,29.81,17,10,0,0.00
2013-12-25,32,27,19,27,22,17,92,82,72,30.26,29.95,11,7,0,0.00
2013-12-26,40,34,28,33,27,23,83,76,67,30.11,29.88,16,10,0,0.00
2013-12-27,43,39,33,34,32,29,86,77,67,30.01,29.74,12,7,0,0.00
2013-12-28,43,14,-3,32,7,-9,88,75,64,30.53,29.72,27,13,0,0.00
2013-12-29,15,9,0,13,4,-6,91,82,76,30.49,29.86,10,5,0,0.00
2013-12-30,16,8,1,14,4,-3,90,83,74,30.25,29.88,16,8,0,0.00
2013-12-31,2,-1,-3,-2,-5,-7,85,83,80,30.16,30.07,16,11,0,0.00
2014-1-1,7,5,2,3,1,-2,87,84,80,30.36,30.14,12,5,0,0.00
2014-1-2,34,10,-12,28,7,-16,93,86,78,30.30,29.63,15,5,0,0.00